Crosby, ND

9:07 PM CDT on March 24, 2017 (GMT -0500)
Crosby

Weather History for KD50 - December, 2013

Change the Weather History Date:

Wednesday, December 11, 2013

  Actual Average (KISN) Record (KISN)
Temperature  
Mean Temperature -5 °F -  
Max Temperature 8 °F 28 °F 57 °F (1939)
Min Temperature -18 °F 6 °F -24 °F (1902)
Degree Days  
Heating Degree Days 70    
Moisture  
Dew Point -10 °F    
Average Humidity 81    
Maximum Humidity 92    
Minimum Humidity 70    
Precipitation  
Precipitation 0.00 in - - ()
Sea Level Pressure  
Sea Level Pressure 30.16 in    
Wind  
Wind Speed 11 mph (SW)    
Max Wind Speed 23 mph    
Max Gust Speed 26 mph    
Visibility 10 miles    
Events      
Averages and records for this station are not official NWS values.
T = Trace of Precipitation, MM = Missing Value Source: NWS Daily Summary

Daily Weather History Graph

Daily Weather History Graph

Search for Another Location

Airport or City:

Trip Planner

Search our weather history database for the weather conditions in past years. The results will help you decide how hot, cold, wet, or windy it might be!

Date:

Astronomy

Dec. 11, 2013 Rise Set
Actual Time 8:37 AM CST 4:56 PM CST
Civil Twilight 8:00 AM CST 5:33 PM CST
Nautical Twilight 7:19 AM CST 6:13 PM CST
Astronomical Twilight 6:41 AM CST 6:51 PM CST
Moon 1:52 PM CST (12/11) 2:37 AM CST (12/11)
Length of Visible Light 9h 33m
Length of Day
8h 18m
Waxing Gibbous, 72% of the Moon is Illuminated
Dec 11
Waxing Gibbous
Dec 17
Full
Dec 25
Last Quarter
Jan 1
New
Jan 7
First Quarter

Hourly Weather History & Observations

Time (CST) Temp. Windchill Dew Point Humidity Pressure Visibility Wind Dir Wind Speed Gust Speed Precip Events Conditions
12:15 AM -13.0 °F -30.0 °F -18.4 °F 77% 30.33 in - West 8.1 mph - N/A   Unknown
12:35 AM -13.0 °F -31.3 °F -18.4 °F 77% 30.34 in - West 9.2 mph - N/A   Unknown
12:55 AM -14.8 °F -33.5 °F -20.2 °F 77% 30.34 in - West 9.2 mph - N/A   Unknown
1:15 AM -13.0 °F -33.4 °F -18.4 °F 77% 30.34 in - WSW 11.5 mph - N/A   Unknown
1:35 AM -13.0 °F -32.4 °F -20.2 °F 70% 30.34 in - West 10.4 mph - N/A   Unknown
1:55 AM -14.8 °F -33.5 °F -20.2 °F 77% 30.33 in - WSW 9.2 mph - N/A   Unknown
2:15 AM -13.0 °F -34.3 °F -20.2 °F 70% 30.33 in - WSW 12.7 mph - N/A   Unknown
2:35 AM -14.8 °F -34.6 °F -20.2 °F 77% 30.33 in - WSW 10.4 mph - N/A   Unknown
2:55 AM -14.8 °F -35.6 °F -20.2 °F 77% 30.32 in - SW 11.5 mph - N/A   Unknown
3:15 AM -16.6 °F -38.9 °F -20.2 °F 84% 30.33 in - WSW 12.7 mph - N/A   Unknown
3:35 AM -14.8 °F -33.5 °F -20.2 °F 77% 30.33 in - WSW 9.2 mph - N/A   Unknown
3:55 AM -14.8 °F -32.2 °F -20.2 °F 77% 30.33 in - WSW 8.1 mph - N/A   Unknown
4:15 AM -14.8 °F -36.6 °F -20.2 °F 77% 30.32 in - SW 12.7 mph - N/A   Unknown
4:35 AM -16.6 °F -36.8 °F -22.0 °F 76% 30.31 in - SSW 10.4 mph - N/A   Unknown
4:55 AM -18.4 °F -36.6 °F -23.8 °F 76% 30.30 in - SSW 8.1 mph - N/A   Unknown
5:15 AM -18.4 °F -36.6 °F -22.0 °F 84% 30.30 in - SSW 8.1 mph - N/A   Unknown
5:35 AM -18.4 °F -39.1 °F -22.0 °F 84% 30.29 in - SSW 10.4 mph - N/A   Unknown
5:55 AM -18.4 °F -39.1 °F -22.0 °F 84% 30.28 in - SSW 10.4 mph - N/A   Unknown
6:15 AM -18.4 °F -39.1 °F -22.0 °F 84% 30.27 in - SSW 10.4 mph - N/A   Unknown
6:35 AM -18.4 °F -36.6 °F -22.0 °F 84% 30.26 in - South 8.1 mph - N/A   Unknown
6:55 AM -18.4 °F -39.1 °F -22.0 °F 84% 30.27 in - SSW 10.4 mph - N/A   Unknown
7:15 AM -16.6 °F -37.9 °F -22.0 °F 76% 30.26 in - South 11.5 mph - N/A   Unknown
7:35 AM -16.6 °F -36.8 °F -22.0 °F 76% 30.25 in - South 10.4 mph - N/A   Unknown
7:55 AM -16.6 °F -38.9 °F -22.0 °F 76% 30.24 in - South 12.7 mph - N/A   Unknown
8:15 AM -14.8 °F -33.5 °F -20.2 °F 77% 30.23 in - South 9.2 mph - N/A   Unknown
8:35 AM -13.0 °F -37.5 °F -18.4 °F 77% 30.22 in - SSW 17.3 mph - N/A   Unknown
8:55 AM -14.8 °F -39.8 °F -20.2 °F 77% 30.21 in - SSW 17.3 mph - N/A   Unknown
9:15 AM -14.8 °F -37.5 °F -20.2 °F 77% 30.20 in - SSW 13.8 mph - N/A   Unknown
9:35 AM -13.0 °F -36.8 °F -20.2 °F 70% 30.20 in - SSW 16.1 mph - N/A   Unknown
9:55 AM -13.0 °F -37.5 °F -18.4 °F 77% 30.19 in - SSW 17.3 mph - N/A   Unknown
10:15 AM -11.2 °F -32.1 °F -16.6 °F 77% 30.18 in - SSW 12.7 mph 17.3 mph N/A   Unknown
10:35 AM -9.4 °F -32.1 °F -14.8 °F 77% 30.17 in - SSW 16.1 mph - N/A   Unknown
10:55 AM -7.6 °F -30.5 °F -13.0 °F 77% 30.15 in - SSW 17.3 mph - N/A   Unknown
11:15 AM -4.0 °F -24.5 °F -9.4 °F 78% 30.15 in - SSW 15.0 mph - N/A   Unknown
11:35 AM -2.2 °F -22.2 °F -9.4 °F 71% 30.13 in - SSW 15.0 mph - N/A   Unknown
11:55 AM -2.2 °F -23.5 °F -9.4 °F 71% 30.11 in - SSW 17.3 mph - N/A   Unknown
12:15 PM -0.4 °F -21.2 °F -7.6 °F 72% 30.09 in - SSW 17.3 mph - N/A   Unknown
12:35 PM -0.4 °F -23.8 °F -5.8 °F 78% 30.08 in - SSW 23.0 mph 26.5 mph N/A   Unknown
12:55 PM -0.4 °F -23.8 °F -4.0 °F 85% 30.07 in - SSW 23.0 mph - N/A   Unknown
1:15 PM -0.4 °F -22.8 °F -4.0 °F 85% 30.04 in - SSW 20.7 mph - N/A   Unknown
1:35 PM 1.4 °F -19.4 °F -2.2 °F 85% 30.03 in - SSW 18.4 mph 24.2 mph N/A   Unknown
1:55 PM 1.4 °F -19.9 °F -2.2 °F 85% 30.03 in - SW 19.6 mph 23.0 mph N/A   Unknown
2:15 PM 1.4 °F -15.3 °F -2.2 °F 85% 30.04 in - SW 11.5 mph - N/A   Unknown
2:35 PM 3.2 °F -11.3 °F -0.4 °F 85% 30.05 in - SW 9.2 mph - N/A   Unknown
2:55 PM 5.0 °F -10.0 °F -0.4 °F 78% 30.04 in - SW 10.4 mph - N/A   Unknown
3:15 PM 6.8 °F -7.8 °F 1.4 °F 79% 30.03 in - SW 10.4 mph - N/A   Unknown
3:35 PM 8.6 °F -6.3 °F 3.2 °F 79% 30.03 in - WSW 11.5 mph - N/A   Unknown
3:55 PM 8.6 °F -2.6 °F 3.2 °F 79% 30.04 in 10.0 mi West 6.9 mph - N/A   Unknown
4:15 PM 8.6 °F -6.3 °F 3.2 °F 79% 30.04 in 10.0 mi West 11.5 mph - N/A   Unknown
4:35 PM 8.6 °F -7.0 °F 3.2 °F 79% 30.05 in 10.0 mi WSW 12.7 mph - N/A   Unknown
4:55 PM 6.8 °F -7.8 °F 1.4 °F 79% 30.05 in 10.0 mi WSW 10.4 mph - N/A   Unknown
5:15 PM 5.0 °F -8.1 °F 1.4 °F 85% 30.05 in 10.0 mi WSW 8.1 mph - N/A   Unknown
5:35 PM 5.0 °F -9.1 °F 1.4 °F 85% 30.05 in - SW 9.2 mph - N/A   Unknown
5:55 PM 3.2 °F -11.3 °F -0.4 °F 85% 30.05 in - SW 9.2 mph - N/A   Unknown
6:15 PM 3.2 °F -11.3 °F -0.4 °F 85% 30.07 in - SW 9.2 mph - N/A   Unknown
6:35 PM 1.4 °F -9.9 °F -0.4 °F 92% 30.08 in - SSW 5.8 mph - N/A   Unknown
6:55 PM 1.4 °F -13.5 °F -0.4 °F 92% 30.08 in 10.0 mi SW 9.2 mph - N/A   Unknown
7:15 PM 1.4 °F -11.3 °F -0.4 °F 92% 30.08 in - SSW 6.9 mph - N/A   Unknown
7:35 PM 1.4 °F -12.5 °F -2.2 °F 85% 30.08 in 10.0 mi SW 8.1 mph - N/A   Unknown
7:55 PM 1.4 °F -13.5 °F -2.2 °F 85% 30.07 in 10.0 mi SSW 9.2 mph - N/A   Unknown
8:15 PM -0.4 °F -14.7 °F -2.2 °F 92% 30.08 in 10.0 mi SSW 8.1 mph - N/A   Unknown
8:35 PM 1.4 °F -12.5 °F -0.4 °F 92% 30.08 in 10.0 mi SW 8.1 mph - N/A   Unknown
8:55 PM 1.4 °F -11.3 °F -0.4 °F 92% 30.09 in 10.0 mi WSW 6.9 mph - N/A   Unknown
9:15 PM 5.0 °F -8.1 °F 1.4 °F 85% 30.09 in 10.0 mi WSW 8.1 mph - N/A   Unknown
9:35 PM 6.8 °F -5.9 °F 3.2 °F 85% 30.09 in 10.0 mi WSW 8.1 mph - N/A   Unknown
9:55 PM 5.0 °F -6.9 °F 1.4 °F 85% 30.09 in 10.0 mi SW 6.9 mph - N/A   Unknown
10:15 PM 3.2 °F -10.3 °F -0.4 °F 85% 30.09 in 10.0 mi SSW 8.1 mph - N/A   Unknown
10:35 PM 5.0 °F -8.1 °F 1.4 °F 85% 30.09 in 10.0 mi SSW 8.1 mph - N/A   Unknown
10:55 PM 5.0 °F -10.0 °F 1.4 °F 85% 30.09 in 10.0 mi South 10.4 mph - N/A   Unknown
11:15 PM 5.0 °F -8.1 °F 1.4 °F 85% 30.09 in 10.0 mi SSW 8.1 mph - N/A   Unknown
11:35 PM 6.8 °F -3.5 °F 3.2 °F 85% 30.09 in 10.0 mi SSW 5.8 mph - N/A   Unknown
11:55 PM 6.8 °F -2.0 °F 5.0 °F 92% 30.08 in 10.0 mi SSW 4.6 mph - N/A   Unknown